Time;durP1;ratioP1;P1;durP2;ratioP2;P2;SDS_P1;SDS_P2;PMS_P1;PMS_P2;Temp;Humidity;BMP_temperature;BMP_pressure;BME280_temperature;BME280_humidity;BME280_pressure;Samples;Min_cycle;Max_cycle;Signal;HPM_P1;HPM_P2
2022/07/08 00:01:38;;;;;;;3.40;2.63;;;;;;;;;;6189606;23;20028;-87
2022/07/08 00:04:04;;;;;;;4.47;3.13;;;;;;;;;;6216536;23;20027;-90
2022/07/08 00:06:29;;;;;;;2.90;2.58;;;;;;;;;;6189838;23;20428;-89
2022/07/08 00:08:56;;;;;;;2.72;2.50;;;;;;;;;;6215876;23;20004;-89
2022/07/08 00:11:22;;;;;;;2.55;2.35;;;;;;;;;;6191220;23;20012;-87
2022/07/08 00:13:48;;;;;;;2.28;2.08;;;;;;;;;;6217962;23;20106;-89
2022/07/08 00:16:14;;;;;;;2.72;2.28;;;;;;;;;;6218014;23;20012;-90
2022/07/08 00:18:39;;;;;;;3.25;2.35;;;;;;;;;;6217966;23;20332;-90
2022/07/08 00:21:05;;;;;;;2.83;2.28;;;;;;;;;;6217901;23;20003;-87
2022/07/08 00:23:30;;;;;;;2.55;2.35;;;;;;;;;;6217934;23;20080;-90
2022/07/08 00:25:55;;;;;;;2.45;1.77;;;;;;;;;;6218291;23;20336;-89
2022/07/08 00:28:21;;;;;;;2.58;1.90;;;;;;;;;;6217995;23;20001;-86
2022/07/08 00:30:47;;;;;;;1.90;1.80;;;;;;;;;;6191440;23;20004;-88
2022/07/08 00:33:12;;;;;;;2.22;2.03;;;;;;;;;;6218231;23;20067;-89
2022/07/08 00:35:38;;;;;;;3.20;1.95;;;;;;;;;;6191396;23;20096;-90
2022/07/08 00:38:03;;;;;;;3.47;2.10;;;;;;;;;;6217760;23;20364;-90
2022/07/08 00:40:29;;;;;;;2.28;2.10;;;;;;;;;;6217669;23;20068;-89
2022/07/08 00:42:54;;;;;;;2.92;1.60;;;;;;;;;;6191365;23;20472;-89
2022/07/08 00:45:20;;;;;;;2.20;1.95;;;;;;;;;;6191419;23;20015;-90
2022/07/08 00:47:45;;;;;;;3.17;2.22;;;;;;;;;;6217858;23;20004;-89
2022/07/08 00:50:11;;;;;;;4.28;3.63;;;;;;;;;;6191419;23;20450;-90
2022/07/08 00:52:38;;;;;;;2.33;2.13;;;;;;;;;;6217695;23;20005;-89
2022/07/08 00:55:04;;;;;;;2.13;1.70;;;;;;;;;;6217878;23;20000;-90
2022/07/08 00:57:30;;;;;;;1.90;1.80;;;;;;;;;;6191654;23;20100;-88
2022/07/08 00:59:56;;;;;;;2.25;1.98;;;;;;;;;;6217623;23;20428;-88
2022/07/08 01:02:22;;;;;;;2.10;1.90;;;;;;;;;;6217851;23;20001;-89
2022/07/08 01:04:48;;;;;;;2.10;1.90;;;;;;;;;;6191074;23;20031;-90
2022/07/08 01:07:13;;;;;;;1.80;1.65;;;;;;;;;;6217737;23;20005;-90
2022/07/08 01:09:39;;;;;;;2.05;1.83;;;;;;;;;;6217698;23;20041;-89
2022/07/08 01:12:05;;;;;;;2.67;2.38;;;;;;;;;;6191119;23;20091;-89
2022/07/08 01:14:31;;;;;;;1.95;1.70;;;;;;;;;;6217743;23;20008;-90
2022/07/08 01:16:56;;;;;;;1.75;1.63;;;;;;;;;;6191421;23;20013;-90
2022/07/08 01:19:22;;;;;;;2.15;1.70;;;;;;;;;;6217502;23;20004;-90
2022/07/08 01:21:47;;;;;;;1.50;1.40;;;;;;;;;;6217595;23;20027;-90
2022/07/08 01:24:13;;;;;;;1.58;1.40;;;;;;;;;;6217796;23;20039;-90
2022/07/08 01:26:38;;;;;;;1.40;1.30;;;;;;;;;;6191077;23;20009;-90
2022/07/08 01:29:07;;;;;;;1.58;1.20;;;;;;;;;;6191076;23;20004;-89
2022/07/08 01:31:32;;;;;;;1.23;1.00;;;;;;;;;;6217557;23;20005;-89
2022/07/08 01:33:58;;;;;;;2.30;1.40;;;;;;;;;;6217448;23;20079;-91
2022/07/08 01:36:23;;;;;;;1.50;1.30;;;;;;;;;;6191412;23;20008;-90
2022/07/08 01:38:49;;;;;;;1.48;1.25;;;;;;;;;;6217388;23;20001;-90
2022/07/08 01:41:14;;;;;;;2.33;1.50;;;;;;;;;;6217305;23;20000;-90
2022/07/08 01:43:39;;;;;;;1.35;1.25;;;;;;;;;;6217771;23;20001;-90
2022/07/08 01:46:05;;;;;;;1.35;1.25;;;;;;;;;;6217352;23;20001;-90
2022/07/08 01:48:30;;;;;;;2.20;1.50;;;;;;;;;;6217310;23;19997;-89
2022/07/08 01:50:56;;;;;;;1.50;1.40;;;;;;;;;;6217355;23;20008;-91
2022/07/08 01:53:21;;;;;;;2.15;1.55;;;;;;;;;;6190840;23;20043;-90
2022/07/08 01:55:47;;;;;;;2.22;1.20;;;;;;;;;;6217147;23;20008;-86
2022/07/08 01:58:12;;;;;;;1.35;1.25;;;;;;;;;;6190743;23;20012;-89
2022/07/08 02:00:38;;;;;;;1.45;1.30;;;;;;;;;;6216709;23;20320;-90
2022/07/08 02:03:03;;;;;;;1.73;1.20;;;;;;;;;;6190849;23;20000;-90
2022/07/08 02:05:32;;;;;;;1.42;1.23;;;;;;;;;;6217043;23;20405;-89
2022/07/08 02:07:58;;;;;;;1.52;1.42;;;;;;;;;;6217111;23;20000;-90
2022/07/08 02:10:24;;;;;;;1.45;1.30;;;;;;;;;;6190708;23;20005;-89
2022/07/08 02:12:49;;;;;;;1.83;1.30;;;;;;;;;;6217004;23;20023;-89
2022/07/08 02:15:14;;;;;;;1.27;1.17;;;;;;;;;;6217128;23;20494;-90
2022/07/08 02:17:42;;;;;;;1.08;1.00;;;;;;;;;;6216748;23;20016;-90
2022/07/08 02:20:10;;;;;;;1.40;1.15;;;;;;;;;;6217004;23;20004;-90
2022/07/08 02:22:37;;;;;;;1.60;1.33;;;;;;;;;;6190485;23;20009;-90
2022/07/08 02:25:03;;;;;;;1.30;1.20;;;;;;;;;;6190090;23;20011;-88
2022/07/08 02:27:29;;;;;;;1.50;1.40;;;;;;;;;;6216491;23;20039;-88
2022/07/08 02:29:54;;;;;;;1.67;1.58;;;;;;;;;;6217087;23;20001;-89
2022/07/08 02:32:20;;;;;;;3.65;1.52;;;;;;;;;;6216796;23;20005;-90
2022/07/08 02:34:45;;;;;;;4.22;1.90;;;;;;;;;;6216899;23;19996;-90
2022/07/08 02:37:11;;;;;;;1.58;1.48;;;;;;;;;;6216792;23;20004;-90
2022/07/08 02:39:37;;;;;;;2.50;1.52;;;;;;;;;;6216870;23;20008;-90
2022/07/08 02:42:03;;;;;;;1.50;1.40;;;;;;;;;;6216975;23;20080;-90
2022/07/08 02:44:29;;;;;;;2.10;1.77;;;;;;;;;;6216583;23;20011;-89
2022/07/08 02:46:54;;;;;;;2.03;1.23;;;;;;;;;;6190296;23;20376;-88
2022/07/08 02:49:20;;;;;;;2.63;1.50;;;;;;;;;;6216626;23;20001;-89
2022/07/08 02:51:45;;;;;;;1.40;1.30;;;;;;;;;;6216794;23;20079;-89
2022/07/08 02:54:11;;;;;;;2.53;1.48;;;;;;;;;;6216663;23;19996;-86
2022/07/08 02:56:37;;;;;;;1.77;1.67;;;;;;;;;;6190208;23;20012;-90
2022/07/08 02:59:03;;;;;;;3.22;2.00;;;;;;;;;;6217075;23;20036;-90
2022/07/08 03:01:29;;;;;;;2.30;2.10;;;;;;;;;;6216542;23;20000;-89
2022/07/08 03:03:54;;;;;;;1.90;1.80;;;;;;;;;;6216740;23;20008;-89
2022/07/08 03:06:20;;;;;;;1.90;1.30;;;;;;;;;;6216524;23;20001;-90
2022/07/08 03:08:45;;;;;;;7.93;2.95;;;;;;;;;;6216946;23;20067;-89
2022/07/08 03:11:11;;;;;;;1.73;1.63;;;;;;;;;;6190193;23;20001;-91
2022/07/08 03:13:36;;;;;;;1.50;1.40;;;;;;;;;;6216638;23;20048;-91
2022/07/08 03:16:03;;;;;;;1.90;1.60;;;;;;;;;;6216541;23;20001;-90
2022/07/08 03:18:29;;;;;;;2.17;1.38;;;;;;;;;;6189876;23;20095;-88
2022/07/08 03:20:54;;;;;;;2.42;2.10;;;;;;;;;;6216486;23;20001;-89
2022/07/08 03:23:19;;;;;;;2.05;1.50;;;;;;;;;;6216704;23;20004;-89
2022/07/08 03:25:45;;;;;;;1.98;1.75;;;;;;;;;;6216576;23;20005;-90
2022/07/08 03:28:10;;;;;;;3.50;2.00;;;;;;;;;;6216429;23;20003;-87
2022/07/08 03:30:36;;;;;;;4.05;2.83;;;;;;;;;;6216539;23;20028;-90
2022/07/08 03:33:01;;;;;;;1.80;1.67;;;;;;;;;;6216627;23;20008;-91
2022/07/08 03:35:27;;;;;;;2.78;1.60;;;;;;;;;;6190367;23;20411;-89
2022/07/08 03:37:52;;;;;;;2.50;2.10;;;;;;;;;;6216829;23;20040;-89
2022/07/08 03:43:01;;;;;;;1.52;1.40;;;;;;;;;;6216644;23;20011;-87
2022/07/08 03:45:27;;;;;;;5.00;2.85;;;;;;;;;;6217678;23;20001;-88
2022/07/08 03:47:53;;;;;;;2.17;1.80;;;;;;;;;;6218378;23;20065;-88
2022/07/08 03:50:19;;;;;;;1.83;1.60;;;;;;;;;;6192056;23;20088;-89
2022/07/08 03:52:47;;;;;;;2.47;1.77;;;;;;;;;;6218741;23;20000;-90
2022/07/08 03:55:13;;;;;;;2.03;1.17;;;;;;;;;;6218675;23;20094;-89
2022/07/08 03:57:38;;;;;;;2.60;1.85;;;;;;;;;;6218446;23;20373;-90
2022/07/08 04:00:07;;;;;;;1.67;1.42;;;;;;;;;;6218549;23;20376;-88
2022/07/08 04:02:32;;;;;;;1.40;1.30;;;;;;;;;;6218232;23;20011;-88
2022/07/08 04:04:58;;;;;;;1.48;1.38;;;;;;;;;;6191990;23;20095;-89
2022/07/08 04:07:23;;;;;;;1.92;1.40;;;;;;;;;;6192122;23;20012;-88
2022/07/08 04:09:49;;;;;;;3.63;1.30;;;;;;;;;;6191938;23;20016;-89
2022/07/08 04:12:14;;;;;;;1.40;1.30;;;;;;;;;;6218552;23;20005;-89
2022/07/08 04:14:40;;;;;;;1.40;1.30;;;;;;;;;;6192021;23;20008;-91
2022/07/08 04:17:05;;;;;;;1.30;1.20;;;;;;;;;;6218134;23;20005;-89
2022/07/08 04:19:30;;;;;;;1.27;1.20;;;;;;;;;;6218458;23;20005;-89
2022/07/08 04:21:56;;;;;;;1.45;1.13;;;;;;;;;;6218518;23;20000;-90
2022/07/08 04:24:22;;;;;;;1.20;1.00;;;;;;;;;;6218311;23;20003;-89
2022/07/08 04:26:47;;;;;;;0.73;0.70;;;;;;;;;;6218445;23;20007;-90
2022/07/08 04:29:12;;;;;;;1.02;1.00;;;;;;;;;;6218423;23;20468;-90
2022/07/08 04:31:38;;;;;;;1.40;1.30;;;;;;;;;;6218459;23;20024;-89
2022/07/08 04:34:03;;;;;;;1.55;1.25;;;;;;;;;;6218394;23;19993;-89
2022/07/08 04:36:29;;;;;;;1.60;1.38;;;;;;;;;;6218181;23;20012;-89
2022/07/08 04:38:54;;;;;;;1.10;1.00;;;;;;;;;;6218285;23;20443;-91
2022/07/08 04:41:20;;;;;;;2.08;1.42;;;;;;;;;;6191519;23;20420;-90
2022/07/08 04:43:45;;;;;;;2.15;1.40;;;;;;;;;;6218051;23;20328;-87
2022/07/08 04:46:14;;;;;;;1.67;1.58;;;;;;;;;;6217628;23;20001;-85
2022/07/08 04:48:41;;;;;;;3.73;2.00;;;;;;;;;;6217509;23;20001;-85
2022/07/08 04:51:06;;;;;;;2.40;2.20;;;;;;;;;;6217724;23;20440;-89
2022/07/08 04:53:32;;;;;;;2.95;2.10;;;;;;;;;;6217641;23;20004;-85
2022/07/08 04:55:57;;;;;;;2.78;2.10;;;;;;;;;;6217171;23;20008;-85
2022/07/08 04:58:23;;;;;;;7.95;5.40;;;;;;;;;;6190808;23;20076;-87
2022/07/08 05:00:48;;;;;;;4.47;2.65;;;;;;;;;;6217258;23;20328;-89
2022/07/08 05:03:14;;;;;;;2.25;2.05;;;;;;;;;;6190746;23;20064;-86
2022/07/08 05:05:40;;;;;;;3.55;1.80;;;;;;;;;;6217569;23;20005;-86
2022/07/08 05:08:05;;;;;;;2.58;2.05;;;;;;;;;;6190257;23;20028;-86
2022/07/08 05:10:31;;;;;;;2.55;2.00;;;;;;;;;;6217812;23;20408;-84
2022/07/08 05:12:57;;;;;;;3.97;1.48;;;;;;;;;;6217819;23;20036;-82
2022/07/08 05:15:23;;;;;;;1.90;1.80;;;;;;;;;;6200337;23;20005;-84
2022/07/08 05:17:49;;;;;;;2.55;1.60;;;;;;;;;;6202894;23;20005;-83
2022/07/08 05:20:15;;;;;;;2.00;1.58;;;;;;;;;;6228886;23;20431;-84
2022/07/08 05:22:40;;;;;;;2.38;1.67;;;;;;;;;;6227968;23;20012;-84
2022/07/08 05:25:08;;;;;;;2.30;2.10;;;;;;;;;;6229730;23;20004;-83
2022/07/08 05:27:34;;;;;;;1.92;1.60;;;;;;;;;;6230150;23;20012;-84
2022/07/08 05:30:00;;;;;;;2.65;2.10;;;;;;;;;;6229135;23;20007;-83
2022/07/08 05:32:26;;;;;;;2.22;1.80;;;;;;;;;;6227810;23;20349;-83
2022/07/08 05:34:51;;;;;;;1.55;1.45;;;;;;;;;;6227737;23;20008;-86
2022/07/08 05:37:17;;;;;;;2.90;1.48;;;;;;;;;;6224644;23;20011;-81
2022/07/08 05:39:43;;;;;;;1.70;1.60;;;;;;;;;;6218742;23;20110;-80
2022/07/08 05:42:10;;;;;;;2.33;1.75;;;;;;;;;;6219633;23;20377;-80
2022/07/08 05:44:37;;;;;;;1.50;1.40;;;;;;;;;;6219653;23;20004;-81
2022/07/08 05:47:07;;;;;;;2.17;1.70;;;;;;;;;;6192835;23;20451;-85
2022/07/08 05:49:34;;;;;;;1.80;1.70;;;;;;;;;;6217513;23;20028;-82
2022/07/08 05:52:00;;;;;;;1.90;1.58;;;;;;;;;;6217749;23;20013;-83
2022/07/08 05:54:26;;;;;;;1.55;1.45;;;;;;;;;;6218374;23;20003;-83
2022/07/08 05:56:51;;;;;;;4.75;1.60;;;;;;;;;;6218203;23;20004;-88
2022/07/08 05:59:17;;;;;;;2.80;1.85;;;;;;;;;;6218439;23;20092;-89
2022/07/08 06:01:42;;;;;;;2.28;1.60;;;;;;;;;;6218929;23;20011;-87
2022/07/08 06:04:08;;;;;;;1.40;1.30;;;;;;;;;;6192518;23;20005;-88
2022/07/08 06:06:33;;;;;;;1.67;1.58;;;;;;;;;;6217757;23;20004;-89
2022/07/08 06:08:58;;;;;;;2.55;1.60;;;;;;;;;;6191309;23;20004;-87
2022/07/08 06:11:24;;;;;;;1.75;1.60;;;;;;;;;;6191334;23;20011;-88
2022/07/08 06:13:50;;;;;;;2.50;1.58;;;;;;;;;;6191559;23;20466;-87
2022/07/08 06:16:15;;;;;;;2.33;1.30;;;;;;;;;;6218342;23;20328;-88
2022/07/08 06:18:41;;;;;;;4.20;1.50;;;;;;;;;;6217969;23;20029;-87
2022/07/08 06:21:07;;;;;;;2.03;1.70;;;;;;;;;;6217581;23;20008;-87
2022/07/08 06:23:34;;;;;;;1.55;1.45;;;;;;;;;;6217719;23;20495;-88
2022/07/08 06:26:00;;;;;;;3.38;1.40;;;;;;;;;;6217743;23;20008;-88
2022/07/08 06:28:25;;;;;;;3.38;1.52;;;;;;;;;;6190764;23;20051;-88
2022/07/08 06:30:51;;;;;;;1.45;1.20;;;;;;;;;;6217499;23;20051;-86
2022/07/08 06:33:16;;;;;;;2.88;1.40;;;;;;;;;;6217579;23;20428;-87
2022/07/08 06:35:41;;;;;;;2.05;1.35;;;;;;;;;;6217359;23;20001;-86
2022/07/08 06:38:07;;;;;;;2.38;1.30;;;;;;;;;;6217473;23;20000;-85
2022/07/08 06:40:32;;;;;;;2.08;1.10;;;;;;;;;;6216782;23;20381;-85
2022/07/08 06:42:58;;;;;;;3.92;1.00;;;;;;;;;;6217172;23;20009;-85
2022/07/08 06:45:23;;;;;;;1.75;0.85;;;;;;;;;;6217160;23;20416;-86
2022/07/08 06:47:49;;;;;;;1.15;1.05;;;;;;;;;;6217308;23;20027;-86
2022/07/08 06:50:14;;;;;;;1.08;0.90;;;;;;;;;;6217321;23;20009;-86
2022/07/08 06:52:40;;;;;;;1.13;0.90;;;;;;;;;;6217014;23;20079;-85
2022/07/08 06:55:05;;;;;;;0.80;0.80;;;;;;;;;;6216782;23;20035;-86
2022/07/08 06:57:31;;;;;;;1.23;1.10;;;;;;;;;;6216705;23;20011;-86
2022/07/08 06:59:56;;;;;;;2.08;0.93;;;;;;;;;;6216512;23;20005;-85
2022/07/08 07:02:22;;;;;;;0.73;0.73;;;;;;;;;;6190196;23;20004;-85
2022/07/08 07:04:48;;;;;;;0.80;0.80;;;;;;;;;;6216811;23;20004;-89
2022/07/08 07:07:13;;;;;;;2.15;1.05;;;;;;;;;;6189964;23;20008;-88
2022/07/08 07:09:39;;;;;;;1.13;0.80;;;;;;;;;;6189750;23;20011;-88
2022/07/08 07:12:09;;;;;;;3.42;0.90;;;;;;;;;;6189679;23;20009;-87
2022/07/08 07:14:35;;;;;;;1.27;0.70;;;;;;;;;;6215137;23;20028;-87
2022/07/08 07:17:00;;;;;;;0.50;0.50;;;;;;;;;;6215410;23;20004;-88
2022/07/08 07:19:27;;;;;;;1.42;0.80;;;;;;;;;;6214498;23;20001;-85
2022/07/08 07:21:53;;;;;;;0.70;0.70;;;;;;;;;;6188974;23;20000;-89
2022/07/08 07:24:18;;;;;;;1.70;0.88;;;;;;;;;;6215210;23;20309;-88
2022/07/08 07:26:44;;;;;;;1.48;0.68;;;;;;;;;;6215375;23;20004;-86
2022/07/08 07:29:10;;;;;;;1.77;0.80;;;;;;;;;;6215167;23;20000;-82
2022/07/08 07:31:36;;;;;;;2.17;0.85;;;;;;;;;;6215880;23;20028;-89
2022/07/08 07:34:02;;;;;;;1.85;0.75;;;;;;;;;;6215023;23;20000;-83
2022/07/08 07:36:29;;;;;;;1.70;0.90;;;;;;;;;;6188531;23;20004;-90
2022/07/08 07:38:55;;;;;;;0.68;0.68;;;;;;;;;;6214793;23;19997;-83
2022/07/08 07:41:20;;;;;;;1.10;0.52;;;;;;;;;;6214743;23;20075;-83
2022/07/08 07:43:46;;;;;;;1.65;0.80;;;;;;;;;;6214615;23;20004;-83
2022/07/08 07:46:11;;;;;;;0.95;0.50;;;;;;;;;;6215105;23;20000;-89
2022/07/08 07:48:37;;;;;;;0.80;0.80;;;;;;;;;;6188408;23;20087;-85
2022/07/08 07:51:03;;;;;;;1.52;0.80;;;;;;;;;;6214718;23;20001;-85
2022/07/08 07:53:28;;;;;;;1.42;0.73;;;;;;;;;;6214593;23;19996;-84
2022/07/08 07:55:54;;;;;;;0.60;0.60;;;;;;;;;;6214464;23;20387;-84
2022/07/08 07:58:20;;;;;;;2.15;0.80;;;;;;;;;;6214578;23;20012;-84
2022/07/08 08:00:45;;;;;;;1.20;0.43;;;;;;;;;;6214418;23;20075;-84
2022/07/08 08:03:11;;;;;;;0.50;0.40;;;;;;;;;;6214522;23;20001;-81
2022/07/08 08:05:38;;;;;;;0.90;0.60;;;;;;;;;;6214553;23;20083;-86
2022/07/08 08:08:04;;;;;;;1.10;0.50;;;;;;;;;;6214507;23;20000;-83
2022/07/08 08:10:30;;;;;;;1.10;0.85;;;;;;;;;;6214280;23;20001;-83
2022/07/08 08:12:56;;;;;;;3.25;0.55;;;;;;;;;;6161200;23;1259489;-82
2022/07/08 08:15:22;;;;;;;0.95;0.50;;;;;;;;;;6216579;23;20009;-83
2022/07/08 08:17:48;;;;;;;0.65;0.55;;;;;;;;;;6216226;23;20009;-85
2022/07/08 08:20:14;;;;;;;3.65;0.55;;;;;;;;;;6189180;23;20015;-88
2022/07/08 08:22:40;;;;;;;6.75;1.65;;;;;;;;;;6216378;23;20385;-84
2022/07/08 08:25:06;;;;;;;3.83;1.00;;;;;;;;;;6215956;23;20336;-86
2022/07/08 08:27:31;;;;;;;1.80;0.75;;;;;;;;;;6215639;23;20084;-85
2022/07/08 08:29:56;;;;;;;2.25;0.80;;;;;;;;;;6189044;23;20497;-80
2022/07/08 08:32:22;;;;;;;3.40;0.70;;;;;;;;;;6217571;23;20005;-80
2022/07/08 08:34:47;;;;;;;0.85;0.60;;;;;;;;;;6217536;23;20084;-82
2022/07/08 08:37:13;;;;;;;2.58;0.52;;;;;;;;;;6217335;23;20005;-78
2022/07/08 08:39:39;;;;;;;1.58;0.43;;;;;;;;;;6217360;23;20100;-80
2022/07/08 08:42:06;;;;;;;2.05;0.60;;;;;;;;;;6217475;23;20031;-79
2022/07/08 08:44:32;;;;;;;0.50;0.50;;;;;;;;;;6217877;23;20495;-80
2022/07/08 08:46:58;;;;;;;0.77;0.50;;;;;;;;;;6217313;23;20004;-79
2022/07/08 08:49:24;;;;;;;1.50;0.60;;;;;;;;;;6217460;23;20421;-78
2022/07/08 08:51:50;;;;;;;2.22;0.68;;;;;;;;;;6217452;23;20320;-79
2022/07/08 08:54:17;;;;;;;2.38;0.47;;;;;;;;;;6217193;23;20007;-80
2022/07/08 08:56:45;;;;;;;3.45;0.68;;;;;;;;;;6217132;23;20313;-79
2022/07/08 08:59:12;;;;;;;2.10;0.60;;;;;;;;;;6217470;23;20424;-80
2022/07/08 09:01:38;;;;;;;1.73;0.50;;;;;;;;;;6190683;23;20058;-81
2022/07/08 09:04:10;;;;;;;0.60;0.50;;;;;;;;;;6217126;23;20032;-80
2022/07/08 09:06:36;;;;;;;0.68;0.55;;;;;;;;;;6217625;23;20348;-81
2022/07/08 09:09:03;;;;;;;1.13;0.60;;;;;;;;;;6216929;23;20031;-80
2022/07/08 09:11:29;;;;;;;0.90;0.60;;;;;;;;;;6217527;23;20324;-81
2022/07/08 09:14:18;;;;;;;1.88;0.60;;;;;;;;;;6190262;23;20008;-80
2022/07/08 09:17:18;;;;;;;0.57;0.50;;;;;;;;;;6217128;23;20020;-80
2022/07/08 09:19:47;;;;;;;1.98;0.80;;;;;;;;;;6217410;23;20012;-80
2022/07/08 09:22:13;;;;;;;3.03;0.50;;;;;;;;;;6217160;23;20008;-80
2022/07/08 09:24:39;;;;;;;1.63;0.50;;;;;;;;;;6217174;23;20001;-81
2022/07/08 09:27:08;;;;;;;0.45;0.30;;;;;;;;;;6216993;23;20004;-80
2022/07/08 09:29:35;;;;;;;1.60;0.73;;;;;;;;;;6216902;23;20027;-85
2022/07/08 09:32:14;;;;;;;0.65;0.65;;;;;;;;;;6217111;23;20032;-81
2022/07/08 09:34:43;;;;;;;0.60;0.50;;;;;;;;;;6216818;23;20011;-81
2022/07/08 09:37:16;;;;;;;0.50;0.47;;;;;;;;;;6216976;23;20008;-81
2022/07/08 09:39:42;;;;;;;0.70;0.70;;;;;;;;;;6216802;23;20005;-81
2022/07/08 09:42:08;;;;;;;0.60;0.50;;;;;;;;;;6216753;23;20001;-83
2022/07/08 09:44:35;;;;;;;2.08;0.73;;;;;;;;;;6216771;23;20015;-81
2022/07/08 09:47:09;;;;;;;1.50;0.70;;;;;;;;;;6217094;23;20036;-84
2022/07/08 09:49:34;;;;;;;0.60;0.50;;;;;;;;;;6216614;23;20007;-81
2022/07/08 09:52:00;;;;;;;0.65;0.57;;;;;;;;;;6216889;23;20005;-81
2022/07/08 09:54:28;;;;;;;0.85;0.63;;;;;;;;;;6216744;23;20004;-81
2022/07/08 09:57:11;;;;;;;0.50;0.50;;;;;;;;;;6216984;23;20008;-81
2022/07/08 09:59:37;;;;;;;0.85;0.60;;;;;;;;;;6216807;23;20008;-80
2022/07/08 10:02:04;;;;;;;0.45;0.45;;;;;;;;;;6216968;23;20040;-88
2022/07/08 10:04:30;;;;;;;0.80;0.60;;;;;;;;;;6217245;23;20004;-88
2022/07/08 10:06:57;;;;;;;1.00;0.60;;;;;;;;;;6216970;23;20420;-86
2022/07/08 10:09:24;;;;;;;0.75;0.70;;;;;;;;;;6216616;23;20005;-86
2022/07/08 10:11:50;;;;;;;0.60;0.60;;;;;;;;;;6190213;23;20009;-81
2022/07/08 10:14:17;;;;;;;1.27;0.77;;;;;;;;;;6216703;23;20292;-85
2022/07/08 10:16:48;;;;;;;0.70;0.63;;;;;;;;;;6216756;23;20023;-85
2022/07/08 10:19:43;;;;;;;0.47;0.47;;;;;;;;;;6216700;23;20059;-91
2022/07/08 10:22:10;;;;;;;0.93;0.50;;;;;;;;;;6196880;23;20070;-84
2022/07/08 10:24:39;;;;;;;0.70;0.63;;;;;;;;;;6216945;23;20005;-79
2022/07/08 10:27:05;;;;;;;3.25;0.77;;;;;;;;;;6216791;23;20012;-80
2022/07/08 10:29:33;;;;;;;1.38;0.65;;;;;;;;;;6216620;23;20309;-89
2022/07/08 10:31:59;;;;;;;2.55;0.40;;;;;;;;;;6217260;23;20001;-82
2022/07/08 10:34:35;;;;;;;0.60;0.60;;;;;;;;;;6216199;23;20000;-82
2022/07/08 10:37:02;;;;;;;0.43;0.32;;;;;;;;;;6216512;23;20008;-83
2022/07/08 10:39:37;;;;;;;1.20;0.75;;;;;;;;;;6189630;23;20006;-82
2022/07/08 10:42:07;;;;;;;0.40;0.40;;;;;;;;;;6189869;23;20004;-82
2022/07/08 10:44:45;;;;;;;0.60;0.60;;;;;;;;;;6216138;23;20008;-83
2022/07/08 10:47:28;;;;;;;3.13;0.70;;;;;;;;;;6216255;23;20005;-83
2022/07/08 10:50:06;;;;;;;0.63;0.63;;;;;;;;;;6216317;23;20001;-83
2022/07/08 10:52:41;;;;;;;1.02;0.95;;;;;;;;;;6215903;23;20008;-79
2022/07/08 10:55:15;;;;;;;1.10;1.10;;;;;;;;;;6216231;23;20032;-86
2022/07/08 10:57:57;;;;;;;1.00;0.98;;;;;;;;;;6216095;23;20032;-84
2022/07/08 11:00:23;;;;;;;0.95;0.90;;;;;;;;;;6216199;23;20031;-83
2022/07/08 11:02:48;;;;;;;0.93;0.93;;;;;;;;;;6216107;23;19997;-85
2022/07/08 11:05:35;;;;;;;1.13;1.00;;;;;;;;;;6216019;23;20004;-84
2022/07/08 11:08:18;;;;;;;1.20;1.00;;;;;;;;;;6216097;23;20050;-84
2022/07/08 11:10:44;;;;;;;1.75;0.90;;;;;;;;;;6189276;23;20009;-83
2022/07/08 11:13:10;;;;;;;0.80;0.77;;;;;;;;;;6215906;23;20012;-82
2022/07/08 11:15:36;;;;;;;1.50;1.10;;;;;;;;;;6216133;23;20079;-84
2022/07/08 11:18:02;;;;;;;0.93;0.93;;;;;;;;;;6216212;23;20008;-83
2022/07/08 11:20:30;;;;;;;0.93;0.88;;;;;;;;;;6189292;23;20008;-84
2022/07/08 11:22:56;;;;;;;1.63;1.05;;;;;;;;;;6215981;23;20005;-83
2022/07/08 11:25:22;;;;;;;0.88;0.88;;;;;;;;;;6216138;23;20009;-82
2022/07/08 11:27:48;;;;;;;1.20;1.20;;;;;;;;;;6215948;23;20005;-84
2022/07/08 11:30:16;;;;;;;1.20;1.10;;;;;;;;;;6215999;23;20005;-81
2022/07/08 11:32:46;;;;;;;0.90;0.90;;;;;;;;;;6216048;23;20104;-82
2022/07/08 11:35:13;;;;;;;1.48;1.20;;;;;;;;;;6189310;23;20364;-83
2022/07/08 11:37:43;;;;;;;1.00;0.70;;;;;;;;;;6189260;23;20080;-84
2022/07/08 11:40:14;;;;;;;1.73;0.70;;;;;;;;;;6215924;23;20076;-81
2022/07/08 11:42:41;;;;;;;1.15;0.57;;;;;;;;;;6216140;23;20035;-84
2022/07/08 11:45:08;;;;;;;0.80;0.80;;;;;;;;;;6189418;23;20063;-85
2022/07/08 16:19:20;;;;;;;2.88;1.05;;;;;;;;;;6165606;23;20432;-86
2022/07/08 16:21:46;;;;;;;0.80;0.80;;;;;;;;;;6220451;23;20008;-86
2022/07/08 16:24:11;;;;;;;1.15;1.05;;;;;;;;;;6220036;23;20023;-86
2022/07/08 16:26:37;;;;;;;2.65;1.40;;;;;;;;;;6219368;23;20024;-87
2022/07/08 16:29:04;;;;;;;1.75;1.30;;;;;;;;;;6218084;23;20008;-85
2022/07/08 16:31:30;;;;;;;2.47;1.40;;;;;;;;;;6191115;23;20004;-86
2022/07/08 16:33:55;;;;;;;1.45;0.95;;;;;;;;;;6191539;23;20004;-86
2022/07/08 16:36:23;;;;;;;1.60;0.80;;;;;;;;;;6218493;23;20008;-88
2022/07/08 16:38:48;;;;;;;0.57;0.57;;;;;;;;;;6218542;23;20009;-85
2022/07/08 16:41:13;;;;;;;2.78;0.90;;;;;;;;;;6217970;23;20056;-85
2022/07/08 16:43:39;;;;;;;1.00;0.88;;;;;;;;;;6217913;23;20011;-85
2022/07/08 16:46:04;;;;;;;1.02;0.93;;;;;;;;;;6218207;23;20083;-86
2022/07/08 16:48:30;;;;;;;1.42;1.30;;;;;;;;;;6217851;23;20005;-87
2022/07/08 16:50:56;;;;;;;0.90;0.90;;;;;;;;;;6218726;23;20005;-86
2022/07/08 16:53:22;;;;;;;1.10;0.75;;;;;;;;;;6191998;23;20083;-85
2022/07/08 16:55:47;;;;;;;0.98;0.77;;;;;;;;;;6191515;23;20031;-92
2022/07/08 16:58:13;;;;;;;1.67;0.60;;;;;;;;;;6191745;23;20020;-89
2022/07/08 17:00:38;;;;;;;1.42;1.02;;;;;;;;;;6191814;23;20012;-86
2022/07/08 17:03:04;;;;;;;2.05;1.25;;;;;;;;;;6218360;23;20146;-87
2022/07/08 17:05:29;;;;;;;0.82;0.82;;;;;;;;;;6218032;23;20004;-88
2022/07/08 17:07:55;;;;;;;2.05;0.65;;;;;;;;;;6218540;23;20039;-86
2022/07/08 17:10:21;;;;;;;0.70;0.70;;;;;;;;;;6218817;23;20371;-87
2022/07/08 17:12:46;;;;;;;0.88;0.88;;;;;;;;;;6218351;23;20380;-89
2022/07/08 17:15:14;;;;;;;1.60;0.80;;;;;;;;;;6191234;23;20004;-86
2022/07/08 17:17:40;;;;;;;1.25;1.00;;;;;;;;;;6191064;23;20008;-89
2022/07/08 20:49:12;;;;;;;1.38;1.27;;;;;;;;;;6193371;23;20051;-84
2022/07/08 20:51:37;;;;;;;1.35;1.20;;;;;;;;;;6187087;23;20383;-88
2022/07/08 20:54:03;;;;;;;1.23;1.13;;;;;;;;;;6187712;23;20005;-85
2022/07/08 20:56:28;;;;;;;1.20;0.95;;;;;;;;;;6187292;23;19997;-84
2022/07/08 20:58:53;;;;;;;1.20;1.10;;;;;;;;;;6187358;23;20009;-85
2022/07/08 21:01:19;;;;;;;1.92;1.23;;;;;;;;;;6188219;23;20462;-94
2022/07/08 21:03:44;;;;;;;1.15;1.02;;;;;;;;;;6187614;23;20071;-85
2022/07/08 21:06:11;;;;;;;1.42;1.33;;;;;;;;;;6185812;23;20005;-83
2022/07/08 21:08:37;;;;;;;2.80;1.20;;;;;;;;;;6187270;23;20005;-85
2022/07/08 21:11:02;;;;;;;1.55;1.20;;;;;;;;;;6210856;23;20032;-85
2022/07/08 21:13:28;;;;;;;2.08;1.27;;;;;;;;;;6186584;23;20001;-83
2022/07/08 21:15:53;;;;;;;1.67;1.20;;;;;;;;;;6186809;23;20020;-85
2022/07/08 21:18:19;;;;;;;1.92;1.40;;;;;;;;;;6185450;23;20009;-84
2022/07/08 21:20:44;;;;;;;1.27;1.17;;;;;;;;;;6187321;23;20063;-84
2022/07/08 21:23:10;;;;;;;1.92;1.27;;;;;;;;;;6187443;23;20305;-85
2022/07/08 21:25:36;;;;;;;1.83;1.20;;;;;;;;;;6187115;23;20371;-84
2022/07/08 21:28:02;;;;;;;1.95;1.27;;;;;;;;;;6187159;23;20091;-84
2022/07/08 21:30:28;;;;;;;1.50;1.20;;;;;;;;;;6187224;23;20032;-85
2022/07/08 21:32:53;;;;;;;1.20;1.10;;;;;;;;;;6186969;23;19997;-86
2022/07/08 21:35:18;;;;;;;1.45;1.35;;;;;;;;;;6187226;23;20005;-84
2022/07/08 21:37:44;;;;;;;1.38;1.23;;;;;;;;;;6186890;23;20313;-86
2022/07/08 21:40:10;;;;;;;1.13;1.10;;;;;;;;;;6187263;23;20070;-87
2022/07/08 21:42:36;;;;;;;1.50;1.40;;;;;;;;;;6186974;23;20006;-85
2022/07/08 21:45:05;;;;;;;2.35;1.45;;;;;;;;;;6187186;23;20001;-86
